sensor_id;sensor_type;location;lat;lon;timestamp;P1;durP1;ratioP1;P2;durP2;ratioP2
21503;SDS011;10913;51.992;9.228;2023-08-31T00:00:41;10.68;;;9.45;;
21503;SDS011;10913;51.992;9.228;2023-08-31T00:03:07;10.23;;;9.13;;
21503;SDS011;10913;51.992;9.228;2023-08-31T00:05:36;10.70;;;9.40;;
21503;SDS011;10913;51.992;9.228;2023-08-31T00:08:02;11.68;;;8.75;;
21503;SDS011;10913;51.992;9.228;2023-08-31T00:10:27;11.98;;;10.20;;
21503;SDS011;10913;51.992;9.228;2023-08-31T00:12:54;10.38;;;9.10;;
21503;SDS011;10913;51.992;9.228;2023-08-31T00:15:20;12.70;;;10.43;;
21503;SDS011;10913;51.992;9.228;2023-08-31T00:17:45;12.60;;;10.20;;
21503;SDS011;10913;51.992;9.228;2023-08-31T00:20:10;12.15;;;10.60;;
21503;SDS011;10913;51.992;9.228;2023-08-31T00:22:39;11.10;;;9.90;;
21503;SDS011;10913;51.992;9.228;2023-08-31T00:25:04;12.75;;;10.35;;
21503;SDS011;10913;51.992;9.228;2023-08-31T00:27:33;12.45;;;10.25;;
21503;SDS011;10913;51.992;9.228;2023-08-31T00:29:59;12.30;;;10.50;;
21503;SDS011;10913;51.992;9.228;2023-08-31T00:32:25;11.50;;;10.00;;
21503;SDS011;10913;51.992;9.228;2023-08-31T00:34:50;11.75;;;10.13;;
21503;SDS011;10913;51.992;9.228;2023-08-31T00:37:16;11.60;;;9.88;;
21503;SDS011;10913;51.992;9.228;2023-08-31T00:39:41;11.85;;;9.70;;
21503;SDS011;10913;51.992;9.228;2023-08-31T00:42:08;10.73;;;9.15;;
21503;SDS011;10913;51.992;9.228;2023-08-31T00:44:34;13.90;;;11.32;;
21503;SDS011;10913;51.992;9.228;2023-08-31T00:47:00;13.43;;;10.52;;
21503;SDS011;10913;51.992;9.228;2023-08-31T00:49:27;13.10;;;10.70;;
21503;SDS011;10913;51.992;9.228;2023-08-31T00:51:53;13.52;;;11.05;;
21503;SDS011;10913;51.992;9.228;2023-08-31T00:54:18;13.27;;;10.27;;
21503;SDS011;10913;51.992;9.228;2023-08-31T00:56:45;11.90;;;10.63;;
21503;SDS011;10913;51.992;9.228;2023-08-31T00:59:11;13.63;;;11.77;;
21503;SDS011;10913;51.992;9.228;2023-08-31T01:01:39;11.68;;;10.15;;
21503;SDS011;10913;51.992;9.228;2023-08-31T01:04:16;11.40;;;9.90;;
21503;SDS011;10913;51.992;9.228;2023-08-31T01:06:53;13.15;;;10.38;;
21503;SDS011;10913;51.992;9.228;2023-08-31T01:12:36;11.60;;;10.35;;
21503;SDS011;10913;51.992;9.228;2023-08-31T01:15:12;12.25;;;9.48;;
21503;SDS011;10913;51.992;9.228;2023-08-31T01:17:39;12.25;;;9.80;;
21503;SDS011;10913;51.992;9.228;2023-08-31T01:20:09;11.57;;;10.07;;
21503;SDS011;10913;51.992;9.228;2023-08-31T01:22:40;11.82;;;9.45;;
21503;SDS011;10913;51.992;9.228;2023-08-31T01:25:09;14.32;;;10.68;;
21503;SDS011;10913;51.992;9.228;2023-08-31T01:27:36;12.98;;;10.82;;
21503;SDS011;10913;51.992;9.228;2023-08-31T01:30:03;14.15;;;10.55;;
21503;SDS011;10913;51.992;9.228;2023-08-31T01:32:29;12.40;;;10.30;;
21503;SDS011;10913;51.992;9.228;2023-08-31T01:34:55;11.45;;;9.02;;
21503;SDS011;10913;51.992;9.228;2023-08-31T01:42:48;13.32;;;10.48;;
21503;SDS011;10913;51.992;9.228;2023-08-31T01:45:15;14.07;;;10.93;;
21503;SDS011;10913;51.992;9.228;2023-08-31T01:47:45;12.43;;;11.13;;
21503;SDS011;10913;51.992;9.228;2023-08-31T01:50:11;14.50;;;11.45;;
21503;SDS011;10913;51.992;9.228;2023-08-31T01:52:36;13.65;;;11.00;;
21503;SDS011;10913;51.992;9.228;2023-08-31T01:55:02;16.17;;;12.55;;
21503;SDS011;10913;51.992;9.228;2023-08-31T01:57:28;17.50;;;14.05;;
21503;SDS011;10913;51.992;9.228;2023-08-31T01:59:53;15.77;;;12.50;;
21503;SDS011;10913;51.992;9.228;2023-08-31T02:02:19;14.20;;;12.20;;
21503;SDS011;10913;51.992;9.228;2023-08-31T02:04:44;15.60;;;12.02;;
21503;SDS011;10913;51.992;9.228;2023-08-31T02:07:09;14.70;;;12.32;;
21503;SDS011;10913;51.992;9.228;2023-08-31T02:09:35;12.07;;;10.80;;
21503;SDS011;10913;51.992;9.228;2023-08-31T02:12:00;13.05;;;11.68;;
21503;SDS011;10913;51.992;9.228;2023-08-31T02:14:26;12.55;;;11.25;;
21503;SDS011;10913;51.992;9.228;2023-08-31T02:16:51;12.32;;;10.95;;
21503;SDS011;10913;51.992;9.228;2023-08-31T02:19:16;15.63;;;11.75;;
21503;SDS011;10913;51.992;9.228;2023-08-31T02:21:42;13.55;;;11.20;;
21503;SDS011;10913;51.992;9.228;2023-08-31T02:24:07;13.52;;;10.38;;
21503;SDS011;10913;51.992;9.228;2023-08-31T02:26:34;12.85;;;10.38;;
21503;SDS011;10913;51.992;9.228;2023-08-31T02:29:02;11.45;;;10.25;;
21503;SDS011;10913;51.992;9.228;2023-08-31T02:31:27;11.35;;;9.88;;
21503;SDS011;10913;51.992;9.228;2023-08-31T02:33:53;12.75;;;10.52;;
21503;SDS011;10913;51.992;9.228;2023-08-31T02:36:18;12.30;;;10.75;;
21503;SDS011;10913;51.992;9.228;2023-08-31T02:38:45;13.18;;;10.50;;
21503;SDS011;10913;51.992;9.228;2023-08-31T02:41:11;11.57;;;10.10;;
21503;SDS011;10913;51.992;9.228;2023-08-31T02:43:36;11.70;;;10.50;;
21503;SDS011;10913;51.992;9.228;2023-08-31T02:46:02;11.55;;;9.73;;
21503;SDS011;10913;51.992;9.228;2023-08-31T02:48:28;14.60;;;10.52;;
21503;SDS011;10913;51.992;9.228;2023-08-31T02:50:56;13.57;;;10.50;;
21503;SDS011;10913;51.992;9.228;2023-08-31T02:53:22;12.32;;;10.00;;
21503;SDS011;10913;51.992;9.228;2023-08-31T02:55:48;12.45;;;10.20;;
21503;SDS011;10913;51.992;9.228;2023-08-31T02:58:15;13.05;;;10.18;;
21503;SDS011;10913;51.992;9.228;2023-08-31T03:00:41;14.90;;;10.20;;
21503;SDS011;10913;51.992;9.228;2023-08-31T03:03:07;12.95;;;9.88;;
21503;SDS011;10913;51.992;9.228;2023-08-31T03:05:33;11.45;;;9.70;;
21503;SDS011;10913;51.992;9.228;2023-08-31T03:07:59;10.30;;;9.20;;
21503;SDS011;10913;51.992;9.228;2023-08-31T03:10:24;12.10;;;10.15;;
21503;SDS011;10913;51.992;9.228;2023-08-31T03:12:49;10.70;;;9.57;;
21503;SDS011;10913;51.992;9.228;2023-08-31T03:15:15;12.95;;;9.27;;
21503;SDS011;10913;51.992;9.228;2023-08-31T03:17:40;10.73;;;9.30;;
21503;SDS011;10913;51.992;9.228;2023-08-31T03:20:06;14.35;;;10.55;;
21503;SDS011;10913;51.992;9.228;2023-08-31T03:22:32;12.07;;;10.40;;
21503;SDS011;10913;51.992;9.228;2023-08-31T03:24:57;13.20;;;10.77;;
21503;SDS011;10913;51.992;9.228;2023-08-31T03:27:23;14.20;;;10.43;;
21503;SDS011;10913;51.992;9.228;2023-08-31T03:29:50;12.63;;;10.32;;
21503;SDS011;10913;51.992;9.228;2023-08-31T03:32:15;15.48;;;11.35;;
21503;SDS011;10913;51.992;9.228;2023-08-31T03:34:41;13.38;;;10.80;;
21503;SDS011;10913;51.992;9.228;2023-08-31T03:37:06;14.80;;;12.30;;
21503;SDS011;10913;51.992;9.228;2023-08-31T03:39:31;16.27;;;12.88;;
21503;SDS011;10913;51.992;9.228;2023-08-31T03:41:57;14.73;;;11.52;;
21503;SDS011;10913;51.992;9.228;2023-08-31T03:44:22;12.90;;;11.02;;
21503;SDS011;10913;51.992;9.228;2023-08-31T03:46:48;14.93;;;11.52;;
21503;SDS011;10913;51.992;9.228;2023-08-31T03:49:14;18.92;;;14.68;;
21503;SDS011;10913;51.992;9.228;2023-08-31T03:51:39;22.10;;;17.65;;
21503;SDS011;10913;51.992;9.228;2023-08-31T03:54:04;22.50;;;18.33;;
21503;SDS011;10913;51.992;9.228;2023-08-31T03:56:30;21.60;;;16.90;;
21503;SDS011;10913;51.992;9.228;2023-08-31T03:58:55;21.95;;;16.80;;
21503;SDS011;10913;51.992;9.228;2023-08-31T04:01:21;20.85;;;17.48;;
21503;SDS011;10913;51.992;9.228;2023-08-31T04:03:46;23.40;;;17.90;;
21503;SDS011;10913;51.992;9.228;2023-08-31T04:06:11;22.40;;;17.98;;
21503;SDS011;10913;51.992;9.228;2023-08-31T04:08:37;20.85;;;16.80;;
21503;SDS011;10913;51.992;9.228;2023-08-31T04:11:02;20.00;;;16.38;;
21503;SDS011;10913;51.992;9.228;2023-08-31T04:13:28;22.15;;;17.77;;
21503;SDS011;10913;51.992;9.228;2023-08-31T04:15:53;20.88;;;17.55;;
21503;SDS011;10913;51.992;9.228;2023-08-31T04:18:19;22.67;;;17.83;;
21503;SDS011;10913;51.992;9.228;2023-08-31T04:20:51;22.55;;;17.10;;
21503;SDS011;10913;51.992;9.228;2023-08-31T04:23:21;23.13;;;17.85;;
21503;SDS011;10913;51.992;9.228;2023-08-31T04:25:46;19.27;;;16.58;;
21503;SDS011;10913;51.992;9.228;2023-08-31T04:28:12;19.00;;;15.40;;
21503;SDS011;10913;51.992;9.228;2023-08-31T04:30:41;20.88;;;17.10;;
21503;SDS011;10913;51.992;9.228;2023-08-31T04:33:06;20.27;;;16.85;;
21503;SDS011;10913;51.992;9.228;2023-08-31T04:35:32;19.88;;;16.08;;
21503;SDS011;10913;51.992;9.228;2023-08-31T04:37:58;21.25;;;16.45;;
21503;SDS011;10913;51.992;9.228;2023-08-31T04:40:24;20.75;;;16.60;;
21503;SDS011;10913;51.992;9.228;2023-08-31T04:42:49;20.35;;;16.15;;
21503;SDS011;10913;51.992;9.228;2023-08-31T04:45:15;19.05;;;16.33;;
21503;SDS011;10913;51.992;9.228;2023-08-31T04:47:40;21.65;;;17.20;;
21503;SDS011;10913;51.992;9.228;2023-08-31T04:50:06;18.05;;;15.30;;
21503;SDS011;10913;51.992;9.228;2023-08-31T04:52:32;18.23;;;14.73;;
21503;SDS011;10913;51.992;9.228;2023-08-31T04:55:00;20.00;;;16.17;;
21503;SDS011;10913;51.992;9.228;2023-08-31T04:57:26;17.90;;;16.00;;
21503;SDS011;10913;51.992;9.228;2023-08-31T04:59:51;18.67;;;15.15;;
21503;SDS011;10913;51.992;9.228;2023-08-31T05:02:16;17.05;;;15.00;;
21503;SDS011;10913;51.992;9.228;2023-08-31T05:04:42;18.63;;;15.00;;
21503;SDS011;10913;51.992;9.228;2023-08-31T05:07:07;18.02;;;13.80;;
21503;SDS011;10913;51.992;9.228;2023-08-31T05:09:32;19.40;;;16.63;;
21503;SDS011;10913;51.992;9.228;2023-08-31T05:12:00;19.20;;;17.13;;
21503;SDS011;10913;51.992;9.228;2023-08-31T05:14:29;17.38;;;14.90;;
21503;SDS011;10913;51.992;9.228;2023-08-31T05:16:54;16.85;;;14.38;;
21503;SDS011;10913;51.992;9.228;2023-08-31T05:19:20;20.20;;;16.30;;
21503;SDS011;10913;51.992;9.228;2023-08-31T05:21:45;17.15;;;13.65;;
21503;SDS011;10913;51.992;9.228;2023-08-31T05:24:11;16.42;;;14.18;;
21503;SDS011;10913;51.992;9.228;2023-08-31T05:26:36;17.85;;;14.80;;
21503;SDS011;10913;51.992;9.228;2023-08-31T05:29:02;16.67;;;14.88;;
21503;SDS011;10913;51.992;9.228;2023-08-31T05:31:29;15.18;;;13.57;;
21503;SDS011;10913;51.992;9.228;2023-08-31T05:33:54;15.13;;;13.63;;
21503;SDS011;10913;51.992;9.228;2023-08-31T05:36:20;17.52;;;14.98;;
21503;SDS011;10913;51.992;9.228;2023-08-31T05:38:46;16.27;;;13.82;;
21503;SDS011;10913;51.992;9.228;2023-08-31T05:41:11;15.60;;;13.90;;
21503;SDS011;10913;51.992;9.228;2023-08-31T05:43:37;17.23;;;14.38;;
21503;SDS011;10913;51.992;9.228;2023-08-31T05:46:05;14.20;;;12.70;;
21503;SDS011;10913;51.992;9.228;2023-08-31T05:48:31;14.98;;;13.48;;
21503;SDS011;10913;51.992;9.228;2023-08-31T05:50:56;16.27;;;14.57;;
21503;SDS011;10913;51.992;9.228;2023-08-31T05:53:22;16.17;;;14.55;;
21503;SDS011;10913;51.992;9.228;2023-08-31T05:55:47;16.13;;;14.52;;
21503;SDS011;10913;51.992;9.228;2023-08-31T05:58:13;15.20;;;13.25;;
21503;SDS011;10913;51.992;9.228;2023-08-31T06:00:38;18.13;;;15.30;;
21503;SDS011;10913;51.992;9.228;2023-08-31T06:03:03;13.73;;;12.32;;
21503;SDS011;10913;51.992;9.228;2023-08-31T06:05:30;14.50;;;12.75;;
21503;SDS011;10913;51.992;9.228;2023-08-31T06:07:56;15.98;;;14.35;;
21503;SDS011;10913;51.992;9.228;2023-08-31T06:10:22;13.35;;;12.05;;
21503;SDS011;10913;51.992;9.228;2023-08-31T06:12:48;16.42;;;14.38;;
21503;SDS011;10913;51.992;9.228;2023-08-31T06:15:15;16.95;;;14.50;;
21503;SDS011;10913;51.992;9.228;2023-08-31T06:17:41;13.60;;;12.18;;
21503;SDS011;10913;51.992;9.228;2023-08-31T06:20:07;14.18;;;12.68;;
21503;SDS011;10913;51.992;9.228;2023-08-31T06:22:33;16.73;;;14.90;;
21503;SDS011;10913;51.992;9.228;2023-08-31T06:24:59;14.18;;;12.77;;
21503;SDS011;10913;51.992;9.228;2023-08-31T06:27:24;14.18;;;12.68;;
21503;SDS011;10913;51.992;9.228;2023-08-31T06:29:50;13.35;;;11.95;;
21503;SDS011;10913;51.992;9.228;2023-08-31T06:32:15;13.40;;;12.07;;
21503;SDS011;10913;51.992;9.228;2023-08-31T06:34:41;12.30;;;11.02;;
21503;SDS011;10913;51.992;9.228;2023-08-31T06:37:07;11.98;;;10.18;;
21503;SDS011;10913;51.992;9.228;2023-08-31T06:39:32;10.63;;;9.52;;
21503;SDS011;10913;51.992;9.228;2023-08-31T06:41:58;10.15;;;9.25;;
21503;SDS011;10913;51.992;9.228;2023-08-31T06:44:23;11.27;;;9.88;;
21503;SDS011;10913;51.992;9.228;2023-08-31T06:46:49;9.30;;;8.40;;
21503;SDS011;10913;51.992;9.228;2023-08-31T06:49:14;11.40;;;10.30;;
21503;SDS011;10913;51.992;9.228;2023-08-31T06:51:40;9.60;;;8.70;;
21503;SDS011;10913;51.992;9.228;2023-08-31T06:54:05;8.98;;;8.18;;
21503;SDS011;10913;51.992;9.228;2023-08-31T06:56:34;9.43;;;8.50;;
21503;SDS011;10913;51.992;9.228;2023-08-31T06:59:00;8.75;;;7.88;;
21503;SDS011;10913;51.992;9.228;2023-08-31T07:01:25;10.50;;;9.32;;
21503;SDS011;10913;51.992;9.228;2023-08-31T07:03:52;7.55;;;6.78;;
21503;SDS011;10913;51.992;9.228;2023-08-31T07:06:18;9.73;;;8.73;;
21503;SDS011;10913;51.992;9.228;2023-08-31T07:08:43;9.55;;;8.50;;
21503;SDS011;10913;51.992;9.228;2023-08-31T07:11:10;8.48;;;7.32;;
21503;SDS011;10913;51.992;9.228;2023-08-31T07:13:36;7.55;;;6.85;;
21503;SDS011;10913;51.992;9.228;2023-08-31T07:16:01;8.32;;;7.40;;
21503;SDS011;10913;51.992;9.228;2023-08-31T07:18:27;9.48;;;8.45;;
21503;SDS011;10913;51.992;9.228;2023-08-31T07:20:52;8.07;;;7.30;;
21503;SDS011;10913;51.992;9.228;2023-08-31T07:23:17;7.18;;;6.47;;
21503;SDS011;10913;51.992;9.228;2023-08-31T07:25:43;7.18;;;6.05;;
21503;SDS011;10913;51.992;9.228;2023-08-31T07:28:08;7.30;;;5.53;;
21503;SDS011;10913;51.992;9.228;2023-08-31T07:30:34;7.43;;;6.40;;
21503;SDS011;10913;51.992;9.228;2023-08-31T07:33:00;8.00;;;6.25;;
21503;SDS011;10913;51.992;9.228;2023-08-31T07:35:28;7.35;;;5.57;;
21503;SDS011;10913;51.992;9.228;2023-08-31T07:37:54;6.68;;;5.35;;
21503;SDS011;10913;51.992;9.228;2023-08-31T07:40:19;7.82;;;7.00;;
21503;SDS011;10913;51.992;9.228;2023-08-31T07:42:44;7.75;;;6.22;;
21503;SDS011;10913;51.992;9.228;2023-08-31T07:45:10;7.43;;;6.45;;
21503;SDS011;10913;51.992;9.228;2023-08-31T07:47:35;9.07;;;6.95;;
21503;SDS011;10913;51.992;9.228;2023-08-31T07:50:01;8.52;;;6.78;;
21503;SDS011;10913;51.992;9.228;2023-08-31T07:52:27;6.43;;;5.60;;
21503;SDS011;10913;51.992;9.228;2023-08-31T07:54:52;7.47;;;5.63;;
21503;SDS011;10913;51.992;9.228;2023-08-31T07:57:18;6.53;;;5.85;;
21503;SDS011;10913;51.992;9.228;2023-08-31T07:59:44;6.68;;;5.90;;
21503;SDS011;10913;51.992;9.228;2023-08-31T08:02:09;11.10;;;6.40;;
21503;SDS011;10913;51.992;9.228;2023-08-31T08:04:35;6.35;;;5.75;;
21503;SDS011;10913;51.992;9.228;2023-08-31T08:07:00;6.45;;;5.72;;
21503;SDS011;10913;51.992;9.228;2023-08-31T08:09:25;6.00;;;4.90;;
21503;SDS011;10913;51.992;9.228;2023-08-31T08:11:51;6.60;;;5.30;;
21503;SDS011;10913;51.992;9.228;2023-08-31T08:14:16;6.05;;;4.78;;
21503;SDS011;10913;51.992;9.228;2023-08-31T08:16:41;5.50;;;5.00;;
21503;SDS011;10913;51.992;9.228;2023-08-31T08:19:07;4.32;;;3.92;;
21503;SDS011;10913;51.992;9.228;2023-08-31T08:21:32;3.70;;;3.35;;
21503;SDS011;10913;51.992;9.228;2023-08-31T08:23:58;4.93;;;3.85;;
21503;SDS011;10913;51.992;9.228;2023-08-31T08:26:24;3.78;;;3.20;;
21503;SDS011;10913;51.992;9.228;2023-08-31T08:28:49;4.28;;;3.13;;
21503;SDS011;10913;51.992;9.228;2023-08-31T08:31:15;3.60;;;3.30;;
21503;SDS011;10913;51.992;9.228;2023-08-31T08:33:40;5.68;;;3.38;;
21503;SDS011;10913;51.992;9.228;2023-08-31T08:36:05;5.47;;;3.70;;
21503;SDS011;10913;51.992;9.228;2023-08-31T08:38:31;3.47;;;3.20;;
21503;SDS011;10913;51.992;9.228;2023-08-31T08:40:56;6.38;;;3.65;;
21503;SDS011;10913;51.992;9.228;2023-08-31T08:43:25;4.57;;;3.80;;
21503;SDS011;10913;51.992;9.228;2023-08-31T08:45:53;4.63;;;3.50;;
21503;SDS011;10913;51.992;9.228;2023-08-31T08:48:19;4.25;;;3.38;;
21503;SDS011;10913;51.992;9.228;2023-08-31T08:50:45;4.18;;;3.28;;
21503;SDS011;10913;51.992;9.228;2023-08-31T08:53:11;3.92;;;3.40;;
21503;SDS011;10913;51.992;9.228;2023-08-31T08:55:40;3.40;;;3.10;;
21503;SDS011;10913;51.992;9.228;2023-08-31T08:58:06;3.75;;;3.45;;
21503;SDS011;10913;51.992;9.228;2023-08-31T09:00:32;3.75;;;3.38;;
21503;SDS011;10913;51.992;9.228;2023-08-31T09:02:58;3.88;;;3.20;;
21503;SDS011;10913;51.992;9.228;2023-08-31T09:05:25;3.20;;;2.90;;
21503;SDS011;10913;51.992;9.228;2023-08-31T09:10:32;5.00;;;3.95;;
21503;SDS011;10913;51.992;9.228;2023-08-31T09:13:04;4.25;;;3.85;;
21503;SDS011;10913;51.992;9.228;2023-08-31T09:15:41;4.30;;;3.67;;
21503;SDS011;10913;51.992;9.228;2023-08-31T09:18:13;3.92;;;3.53;;
21503;SDS011;10913;51.992;9.228;2023-08-31T09:20:43;6.18;;;3.47;;
21503;SDS011;10913;51.992;9.228;2023-08-31T09:23:10;5.93;;;4.60;;
21503;SDS011;10913;51.992;9.228;2023-08-31T09:25:48;5.40;;;4.38;;
21503;SDS011;10913;51.992;9.228;2023-08-31T09:28:16;5.13;;;4.05;;
21503;SDS011;10913;51.992;9.228;2023-08-31T09:30:44;4.40;;;3.95;;
21503;SDS011;10913;51.992;9.228;2023-08-31T09:33:16;5.53;;;4.65;;
21503;SDS011;10913;51.992;9.228;2023-08-31T09:35:52;7.72;;;5.00;;
21503;SDS011;10913;51.992;9.228;2023-08-31T09:38:19;5.75;;;4.20;;
21503;SDS011;10913;51.992;9.228;2023-08-31T09:40:45;5.68;;;4.50;;
21503;SDS011;10913;51.992;9.228;2023-08-31T09:43:10;7.40;;;5.05;;
21503;SDS011;10913;51.992;9.228;2023-08-31T09:45:36;5.30;;;4.82;;
21503;SDS011;10913;51.992;9.228;2023-08-31T09:48:03;5.72;;;4.72;;
21503;SDS011;10913;51.992;9.228;2023-08-31T09:50:30;6.30;;;4.40;;
21503;SDS011;10913;51.992;9.228;2023-08-31T09:53:07;4.35;;;4.00;;
21503;SDS011;10913;51.992;9.228;2023-08-31T09:55:35;4.82;;;4.28;;
21503;SDS011;10913;51.992;9.228;2023-08-31T09:58:03;6.13;;;4.78;;
21503;SDS011;10913;51.992;9.228;2023-08-31T10:00:32;4.80;;;4.03;;
21503;SDS011;10913;51.992;9.228;2023-08-31T10:03:03;4.63;;;4.15;;
21503;SDS011;10913;51.992;9.228;2023-08-31T10:05:30;4.30;;;3.97;;
21503;SDS011;10913;51.992;9.228;2023-08-31T10:07:56;5.05;;;4.30;;
21503;SDS011;10913;51.992;9.228;2023-08-31T10:10:23;4.03;;;3.65;;
21503;SDS011;10913;51.992;9.228;2023-08-31T10:12:49;3.92;;;3.40;;
21503;SDS011;10913;51.992;9.228;2023-08-31T10:15:15;3.88;;;3.25;;
21503;SDS011;10913;51.992;9.228;2023-08-31T10:17:41;3.65;;;3.03;;
21503;SDS011;10913;51.992;9.228;2023-08-31T10:20:08;3.53;;;3.17;;
21503;SDS011;10913;51.992;9.228;2023-08-31T10:22:36;3.85;;;3.03;;
21503;SDS011;10913;51.992;9.228;2023-08-31T10:25:03;3.30;;;3.00;;
21503;SDS011;10913;51.992;9.228;2023-08-31T10:35:40;5.85;;;2.95;;
21503;SDS011;10913;51.992;9.228;2023-08-31T10:41:02;4.15;;;2.90;;
21503;SDS011;10913;51.992;9.228;2023-08-31T10:43:47;4.20;;;2.70;;
21503;SDS011;10913;51.992;9.228;2023-08-31T10:46:18;5.50;;;2.50;;
21503;SDS011;10913;51.992;9.228;2023-08-31T10:51:49;4.22;;;2.90;;
21503;SDS011;10913;51.992;9.228;2023-08-31T11:07:30;3.75;;;2.50;;
21503;SDS011;10913;51.992;9.228;2023-08-31T11:12:34;3.00;;;2.70;;
21503;SDS011;10913;51.992;9.228;2023-08-31T11:15:00;3.83;;;2.50;;
21503;SDS011;10913;51.992;9.228;2023-08-31T11:17:26;2.95;;;2.45;;
21503;SDS011;10913;51.992;9.228;2023-08-31T11:19:52;3.10;;;2.22;;
21503;SDS011;10913;51.992;9.228;2023-08-31T11:22:18;2.63;;;2.42;;
21503;SDS011;10913;51.992;9.228;2023-08-31T11:24:43;4.13;;;2.63;;
21503;SDS011;10913;51.992;9.228;2023-08-31T11:27:09;3.97;;;3.08;;
21503;SDS011;10913;51.992;9.228;2023-08-31T11:29:53;5.63;;;2.80;;
21503;SDS011;10913;51.992;9.228;2023-08-31T11:32:18;4.55;;;2.83;;
21503;SDS011;10913;51.992;9.228;2023-08-31T11:34:44;4.10;;;2.50;;
21503;SDS011;10913;51.992;9.228;2023-08-31T11:37:10;2.35;;;2.15;;
21503;SDS011;10913;51.992;9.228;2023-08-31T11:39:40;3.88;;;2.58;;
21503;SDS011;10913;51.992;9.228;2023-08-31T11:42:07;2.80;;;2.47;;
21503;SDS011;10913;51.992;9.228;2023-08-31T11:44:33;3.08;;;2.40;;
21503;SDS011;10913;51.992;9.228;2023-08-31T11:46:59;4.10;;;2.22;;
21503;SDS011;10913;51.992;9.228;2023-08-31T11:49:25;2.88;;;1.77;;
21503;SDS011;10913;51.992;9.228;2023-08-31T11:51:52;1.77;;;1.60;;
21503;SDS011;10913;51.992;9.228;2023-08-31T11:54:17;3.22;;;2.00;;
21503;SDS011;10913;51.992;9.228;2023-08-31T11:56:43;3.03;;;1.85;;
21503;SDS011;10913;51.992;9.228;2023-08-31T11:59:11;3.90;;;2.67;;
21503;SDS011;10913;51.992;9.228;2023-08-31T12:01:41;5.07;;;3.20;;
21503;SDS011;10913;51.992;9.228;2023-08-31T12:04:14;4.10;;;2.50;;
21503;SDS011;10913;51.992;9.228;2023-08-31T12:06:50;4.60;;;2.38;;
21503;SDS011;10913;51.992;9.228;2023-08-31T12:09:17;3.60;;;2.15;;
21503;SDS011;10913;51.992;9.228;2023-08-31T12:11:48;3.35;;;1.88;;
21503;SDS011;10913;51.992;9.228;2023-08-31T12:14:25;2.13;;;1.60;;
21503;SDS011;10913;51.992;9.228;2023-08-31T12:16:59;1.98;;;1.70;;
21503;SDS011;10913;51.992;9.228;2023-08-31T12:19:28;3.03;;;1.80;;
21503;SDS011;10913;51.992;9.228;2023-08-31T12:21:54;2.35;;;1.80;;
21503;SDS011;10913;51.992;9.228;2023-08-31T12:24:20;3.42;;;1.77;;
21503;SDS011;10913;51.992;9.228;2023-08-31T12:26:47;2.95;;;1.83;;
21503;SDS011;10913;51.992;9.228;2023-08-31T12:29:12;2.25;;;1.73;;
21503;SDS011;10913;51.992;9.228;2023-08-31T12:31:38;2.60;;;2.05;;
21503;SDS011;10913;51.992;9.228;2023-08-31T12:34:04;2.42;;;1.60;;
21503;SDS011;10913;51.992;9.228;2023-08-31T12:36:31;3.35;;;1.88;;
21503;SDS011;10913;51.992;9.228;2023-08-31T12:38:57;3.92;;;1.73;;
21503;SDS011;10913;51.992;9.228;2023-08-31T12:41:26;3.03;;;1.40;;
21503;SDS011;10913;51.992;9.228;2023-08-31T12:43:52;1.98;;;1.20;;
21503;SDS011;10913;51.992;9.228;2023-08-31T12:46:17;2.60;;;1.50;;
21503;SDS011;10913;51.992;9.228;2023-08-31T12:48:42;3.05;;;1.70;;
21503;SDS011;10913;51.992;9.228;2023-08-31T12:51:08;2.05;;;1.42;;
21503;SDS011;10913;51.992;9.228;2023-08-31T12:53:37;1.80;;;1.40;;
21503;SDS011;10913;51.992;9.228;2023-08-31T12:56:03;2.33;;;1.30;;
21503;SDS011;10913;51.992;9.228;2023-08-31T12:58:29;2.45;;;1.42;;
21503;SDS011;10913;51.992;9.228;2023-08-31T13:00:54;4.03;;;1.85;;
21503;SDS011;10913;51.992;9.228;2023-08-31T13:03:25;2.40;;;1.30;;
21503;SDS011;10913;51.992;9.228;2023-08-31T13:05:51;2.22;;;1.50;;
21503;SDS011;10913;51.992;9.228;2023-08-31T13:08:17;2.83;;;1.23;;
21503;SDS011;10913;51.992;9.228;2023-08-31T13:10:42;3.40;;;1.65;;
21503;SDS011;10913;51.992;9.228;2023-08-31T13:13:08;3.38;;;1.48;;
21503;SDS011;10913;51.992;9.228;2023-08-31T13:15:34;1.70;;;1.33;;
21503;SDS011;10913;51.992;9.228;2023-08-31T13:18:00;2.33;;;1.45;;
21503;SDS011;10913;51.992;9.228;2023-08-31T13:20:25;2.72;;;1.33;;
21503;SDS011;10913;51.992;9.228;2023-08-31T13:22:52;1.23;;;1.10;;
21503;SDS011;10913;51.992;9.228;2023-08-31T13:25:17;1.58;;;1.10;;
21503;SDS011;10913;51.992;9.228;2023-08-31T13:27:43;1.60;;;1.30;;
21503;SDS011;10913;51.992;9.228;2023-08-31T13:30:09;1.75;;;1.40;;
21503;SDS011;10913;51.992;9.228;2023-08-31T13:32:37;2.17;;;1.25;;
21503;SDS011;10913;51.992;9.228;2023-08-31T13:35:02;1.42;;;1.00;;
21503;SDS011;10913;51.992;9.228;2023-08-31T13:37:28;1.42;;;1.08;;
21503;SDS011;10913;51.992;9.228;2023-08-31T13:39:53;2.13;;;1.08;;
21503;SDS011;10913;51.992;9.228;2023-08-31T13:42:20;1.60;;;1.15;;
21503;SDS011;10913;51.992;9.228;2023-08-31T13:44:46;1.90;;;1.10;;
21503;SDS011;10913;51.992;9.228;2023-08-31T13:47:11;1.92;;;1.10;;
21503;SDS011;10913;51.992;9.228;2023-08-31T13:49:37;1.42;;;1.00;;
21503;SDS011;10913;51.992;9.228;2023-08-31T13:52:02;1.48;;;1.00;;
21503;SDS011;10913;51.992;9.228;2023-08-31T13:54:30;1.58;;;0.95;;
21503;SDS011;10913;51.992;9.228;2023-08-31T13:56:56;2.65;;;0.95;;
21503;SDS011;10913;51.992;9.228;2023-08-31T13:59:21;1.90;;;1.10;;
21503;SDS011;10913;51.992;9.228;2023-08-31T14:01:46;2.03;;;1.00;;
21503;SDS011;10913;51.992;9.228;2023-08-31T14:04:12;0.80;;;0.73;;
21503;SDS011;10913;51.992;9.228;2023-08-31T14:06:37;4.05;;;1.40;;
21503;SDS011;10913;51.992;9.228;2023-08-31T14:09:02;1.13;;;1.00;;
21503;SDS011;10913;51.992;9.228;2023-08-31T14:11:30;2.35;;;1.10;;
21503;SDS011;10913;51.992;9.228;2023-08-31T14:14:00;2.13;;;1.00;;
21503;SDS011;10913;51.992;9.228;2023-08-31T14:16:28;2.90;;;1.15;;
21503;SDS011;10913;51.992;9.228;2023-08-31T14:18:53;1.38;;;1.02;;
21503;SDS011;10913;51.992;9.228;2023-08-31T14:21:19;2.38;;;1.20;;
21503;SDS011;10913;51.992;9.228;2023-08-31T14:23:45;1.60;;;1.25;;
21503;SDS011;10913;51.992;9.228;2023-08-31T14:26:10;2.83;;;1.00;;
21503;SDS011;10913;51.992;9.228;2023-08-31T14:28:36;1.92;;;1.20;;
21503;SDS011;10913;51.992;9.228;2023-08-31T14:31:05;2.08;;;1.13;;
21503;SDS011;10913;51.992;9.228;2023-08-31T14:33:31;1.80;;;1.20;;
21503;SDS011;10913;51.992;9.228;2023-08-31T14:35:56;1.98;;;1.30;;
21503;SDS011;10913;51.992;9.228;2023-08-31T14:38:22;4.45;;;1.60;;
21503;SDS011;10913;51.992;9.228;2023-08-31T14:40:48;3.05;;;1.55;;
21503;SDS011;10913;51.992;9.228;2023-08-31T14:43:14;3.13;;;1.42;;
21503;SDS011;10913;51.992;9.228;2023-08-31T14:45:39;1.52;;;1.30;;
21503;SDS011;10913;51.992;9.228;2023-08-31T14:48:05;2.22;;;1.30;;
21503;SDS011;10913;51.992;9.228;2023-08-31T14:50:30;1.73;;;1.10;;
21503;SDS011;10913;51.992;9.228;2023-08-31T14:52:56;1.70;;;1.10;;
21503;SDS011;10913;51.992;9.228;2023-08-31T14:55:21;2.15;;;1.00;;
21503;SDS011;10913;51.992;9.228;2023-08-31T14:57:47;1.83;;;1.15;;
21503;SDS011;10913;51.992;9.228;2023-08-31T15:00:13;1.33;;;0.90;;
21503;SDS011;10913;51.992;9.228;2023-08-31T15:02:39;1.10;;;1.00;;
21503;SDS011;10913;51.992;9.228;2023-08-31T15:05:04;1.42;;;0.90;;
21503;SDS011;10913;51.992;9.228;2023-08-31T15:07:30;1.25;;;0.98;;
21503;SDS011;10913;51.992;9.228;2023-08-31T15:09:56;1.40;;;0.90;;
21503;SDS011;10913;51.992;9.228;2023-08-31T15:12:21;1.13;;;1.00;;